TimeCDT,TemperatureF,Dew PointF,Humidity,Sea Level PressureIn,VisibilityMPH,Wind Direction,Wind SpeedMPH,Gust SpeedMPH,PrecipitationIn,Events,Conditions,WindDirDegrees,DateUTC
12:49 AM,66.2,46.4,49,29.90,-9999.0,WNW,5.8,-,N/A,Thunderstorm,Thunderstorm,300,2012-10-22 05:49:00
12:53 AM,66.9,46.9,49,29.78,-9999.0,West,6.9,-,N/A,Thunderstorm,Thunderstorm,280,2012-10-22 05:53:00
1:21 AM,62.6,55.4,77,30.00,1.0,West,25.3,49.5,0.25,Rain-Thunderstorm,Heavy Thunderstorms and Rain,260,2012-10-22 06:21:00
2:53 AM,63.0,57.0,81,29.80,10.0,ENE,5.8,-,N/A,,Clear,60,2012-10-22 07:53:00
3:53 AM,62.1,59.0,90,29.80,10.0,West,3.5,-,N/A,,Clear,270,2012-10-22 08:53:00
4:53 AM,63.0,57.9,84,29.76,10.0,NE,5.8,-,0.01,Rain,Light Rain,40,2012-10-22 09:53:00
5:53 AM,61.0,57.9,90,29.77,10.0,NNW,4.6,-,0.00,,Clear,330,2012-10-22 10:53:00
6:53 AM,59.0,57.2,94,29.91,10.0,SW,4.6,-,N/A,,Clear,230,2012-10-22 11:53:00
7:53 AM,59.0,55.9,90,29.82,10.0,West,6.9,-,N/A,,Clear,260,2012-10-22 12:53:00
8:53 AM,60.1,55.9,86,29.86,10.0,North,4.6,-,N/A,,Clear,360,2012-10-22 13:53:00
9:53 AM,66.0,55.9,70,29.87,10.0,Calm,Calm,-,N/A,,Clear,0,2012-10-22 14:53:00
10:53 AM,72.0,55.0,55,29.88,10.0,Calm,Calm,-,N/A,,Clear,0,2012-10-22 15:53:00
11:53 AM,75.0,53.1,46,29.87,10.0,SSE,3.5,-,N/A,,Clear,160,2012-10-22 16:53:00
12:53 PM,78.1,53.1,42,29.85,10.0,South,5.8,-,N/A,,Clear,190,2012-10-22 17:53:00
1:53 PM,80.1,50.0,35,29.81,10.0,South,5.8,-,N/A,,Clear,190,2012-10-22 18:53:00
2:53 PM,81.0,50.0,34,29.79,10.0,Variable,3.5,-,N/A,,Clear,0,2012-10-22 19:53:00
3:53 PM,82.0,48.9,31,29.77,10.0,Calm,Calm,-,N/A,,Clear,0,2012-10-22 20:53:00
4:53 PM,82.9,50.0,32,29.76,10.0,South,6.9,-,N/A,,Clear,170,2012-10-22 21:53:00
5:53 PM,82.9,51.1,33,29.76,10.0,South,6.9,-,N/A,,Clear,170,2012-10-22 22:53:00
6:53 PM,79.0,55.0,44,29.78,-9999.0,SE,5.8,-,N/A,,Clear,140,2012-10-22 23:53:00
7:53 PM,71.6,57.2,60,29.90,-9999.0,SSE,6.9,-,N/A,,Clear,160,2012-10-23 00:53:00
8:53 PM,72.0,54.0,53,29.81,-9999.0,South,8.1,-,N/A,,Clear,180,2012-10-23 01:53:00
9:53 PM,66.9,55.0,66,29.82,-9999.0,SSE,6.9,-,N/A,,Clear,160,2012-10-23 02:53:00
10:53 PM,66.9,61.0,81,29.83,-9999.0,SE,5.8,-,N/A,,Clear,130,2012-10-23 03:53:00
11:53 PM,64.9,61.0,87,29.83,-9999.0,Calm,Calm,-,N/A,,Clear,0,2012-10-23 04:53:00